createdAt,value
2022-12-08T00:00:13.013Z,2.64
2022-12-08T00:01:12.872Z,2.66
2022-12-08T00:02:12.947Z,2.66
2022-12-08T00:03:13.010Z,2.66
2022-12-08T00:04:12.849Z,2.63
2022-12-08T00:05:12.850Z,2.63
2022-12-08T00:06:12.791Z,2.63
2022-12-08T00:07:12.777Z,2.63
2022-12-08T00:08:12.842Z,2.64
2022-12-08T00:09:12.743Z,2.61
2022-12-08T00:10:46.657Z,2.59
2022-12-08T00:11:13.737Z,2.58
2022-12-08T00:12:12.717Z,2.58
2022-12-08T00:13:12.711Z,2.58
2022-12-08T00:14:12.692Z,2.58
2022-12-08T00:15:12.733Z,2.58
2022-12-08T00:16:12.726Z,2.56
2022-12-08T00:17:12.650Z,2.58
2022-12-08T00:18:12.656Z,2.56
2022-12-08T00:19:13.689Z,2.58
2022-12-08T00:20:12.741Z,2.58
2022-12-08T00:21:12.601Z,2.58
2022-12-08T00:22:12.695Z,2.58
2022-12-08T00:23:12.592Z,2.58
2022-12-08T00:24:12.552Z,2.59
2022-12-08T00:25:12.552Z,2.59
2022-12-08T00:26:12.556Z,2.61
2022-12-08T00:27:12.520Z,2.61
2022-12-08T00:28:12.505Z,2.61
2022-12-08T00:29:17.180Z,2.64
2022-12-08T00:30:13.512Z,2.64
2022-12-08T00:31:12.482Z,2.66
2022-12-08T00:32:12.669Z,2.67
2022-12-08T00:33:12.451Z,2.69
2022-12-08T00:34:12.431Z,2.70
2022-12-08T00:35:12.549Z,2.70
2022-12-08T00:36:12.414Z,2.69
2022-12-08T00:37:12.394Z,2.67
2022-12-08T00:38:12.391Z,2.66
2022-12-08T00:39:12.377Z,2.64
2022-12-08T00:40:12.361Z,2.64
2022-12-08T00:41:12.363Z,2.63
2022-12-08T00:42:12.407Z,2.59
2022-12-08T00:43:12.322Z,2.59
2022-12-08T00:44:13.302Z,2.58
2022-12-08T00:45:12.308Z,2.59
2022-12-08T00:46:12.363Z,2.59
2022-12-08T00:47:12.287Z,2.61
2022-12-08T00:48:12.253Z,2.61
2022-12-08T00:49:12.259Z,2.59
2022-12-08T00:50:12.235Z,2.61
2022-12-08T00:51:12.243Z,2.63
2022-12-08T00:52:12.201Z,2.64
2022-12-08T00:53:12.194Z,2.63
2022-12-08T00:54:12.188Z,2.61
2022-12-08T00:55:12.182Z,2.63
2022-12-08T00:56:12.162Z,2.64
2022-12-08T00:57:12.163Z,2.64
2022-12-08T00:58:12.132Z,2.63
2022-12-08T00:59:12.133Z,2.61
2022-12-08T01:00:12.111Z,2.61
2022-12-08T01:01:12.180Z,2.59
2022-12-08T01:02:13.081Z,2.59
2022-12-08T01:03:12.125Z,2.58
2022-12-08T01:04:12.068Z,2.58
2022-12-08T01:05:13.063Z,2.61
2022-12-08T01:06:13.042Z,2.61
2022-12-08T01:07:12.030Z,2.58
2022-12-08T01:08:12.090Z,2.59
2022-12-08T01:09:12.004Z,2.58
2022-12-08T01:10:12.974Z,2.58
2022-12-08T01:11:11.983Z,2.56
2022-12-08T01:12:12.943Z,2.55
2022-12-08T01:13:11.943Z,2.53
2022-12-08T01:14:11.934Z,2.53
2022-12-08T01:15:11.925Z,2.52
2022-12-08T01:16:12.944Z,2.53
2022-12-08T01:17:11.953Z,2.55
2022-12-08T01:18:11.877Z,2.55
2022-12-08T01:19:11.961Z,2.55
2022-12-08T01:20:11.851Z,2.53
2022-12-08T01:21:11.859Z,2.53
2022-12-08T01:22:11.835Z,2.55
2022-12-08T01:23:11.832Z,2.53
2022-12-08T01:24:11.805Z,2.51
2022-12-08T01:25:11.803Z,2.48
2022-12-08T01:26:11.773Z,2.48
2022-12-08T01:27:11.771Z,2.45
2022-12-08T01:28:12.747Z,2.45
2022-12-08T01:29:11.735Z,2.41
2022-12-08T01:30:11.733Z,2.40
2022-12-08T01:31:11.835Z,2.37
2022-12-08T01:32:11.703Z,2.34
2022-12-08T01:33:11.694Z,2.33
2022-12-08T01:34:11.665Z,2.34
2022-12-08T01:35:11.672Z,2.33
2022-12-08T01:36:11.653Z,2.31
2022-12-08T01:37:11.664Z,2.31
2022-12-08T01:38:11.623Z,2.27
2022-12-08T01:39:11.624Z,2.26
2022-12-08T01:40:11.600Z,2.22
2022-12-08T01:41:11.632Z,2.23
2022-12-08T01:42:12.576Z,2.20
2022-12-08T01:43:11.582Z,2.20
2022-12-08T01:44:11.542Z,2.20
2022-12-08T01:45:11.542Z,2.19
2022-12-08T01:46:13.628Z,2.16
2022-12-08T01:47:13.544Z,2.15
2022-12-08T01:48:11.588Z,2.12
2022-12-08T01:49:11.494Z,2.12
2022-12-08T01:50:11.474Z,2.09
2022-12-08T01:51:11.488Z,2.06
2022-12-08T01:52:11.447Z,2.06
2022-12-08T01:53:11.447Z,2.02
2022-12-08T01:54:11.424Z,2.02
2022-12-08T01:55:11.414Z,2.01
2022-12-08T01:56:11.403Z,1.99
2022-12-08T01:57:11.394Z,1.97
2022-12-08T01:58:11.378Z,1.93
2022-12-08T01:59:11.375Z,1.91
2022-12-08T02:00:11.346Z,1.89
2022-12-08T02:01:11.425Z,1.85
2022-12-08T02:02:11.385Z,1.83
2022-12-08T02:03:11.330Z,1.83
2022-12-08T02:04:11.310Z,1.80
2022-12-08T02:05:11.304Z,1.79
2022-12-08T02:06:11.284Z,1.78
2022-12-08T02:07:11.254Z,1.75
2022-12-08T02:08:11.349Z,1.73
2022-12-08T02:09:12.234Z,1.72
2022-12-08T02:10:11.225Z,1.72
2022-12-08T02:11:11.224Z,1.68
2022-12-08T02:12:11.194Z,1.68
2022-12-08T02:13:11.195Z,1.64
2022-12-08T02:14:11.202Z,1.62
2022-12-08T02:15:11.162Z,1.62
2022-12-08T02:16:11.249Z,1.62
2022-12-08T02:17:11.131Z,1.62
2022-12-08T02:18:11.125Z,1.62
2022-12-08T02:20:12.094Z,1.57
2022-12-08T02:21:11.095Z,1.54
2022-12-08T02:22:11.071Z,1.52
2022-12-08T02:23:11.064Z,1.50
2022-12-08T02:24:12.046Z,1.50
2022-12-08T02:25:11.035Z,1.47
2022-12-08T02:26:11.034Z,1.46
2022-12-08T02:27:11.026Z,1.46
2022-12-08T02:28:11.006Z,1.46
2022-12-08T02:29:11.004Z,1.43
2022-12-08T02:30:10.992Z,1.42
2022-12-08T02:31:11.017Z,1.42
2022-12-08T02:32:10.948Z,1.39
2022-12-08T02:33:10.935Z,1.37
2022-12-08T02:34:10.922Z,1.36
2022-12-08T02:35:10.927Z,1.34
2022-12-08T02:36:10.931Z,1.34
2022-12-08T02:37:10.878Z,1.33
2022-12-08T02:38:10.863Z,1.32
2022-12-08T02:39:10.859Z,1.29
2022-12-08T02:40:11.857Z,1.29
2022-12-08T02:41:10.876Z,1.28
2022-12-08T02:42:10.815Z,1.28
2022-12-08T02:43:10.807Z,1.26
2022-12-08T02:44:10.796Z,1.25
2022-12-08T02:45:10.790Z,1.25
2022-12-08T02:46:10.881Z,1.24
2022-12-08T02:47:10.765Z,1.22
2022-12-08T02:48:10.750Z,1.22
2022-12-08T02:49:10.738Z,1.21
2022-12-08T02:50:10.714Z,1.21
2022-12-08T02:51:10.748Z,1.18
2022-12-08T02:52:10.716Z,1.18
2022-12-08T02:53:40.988Z,1.18
2022-12-08T02:54:40.980Z,1.18
2022-12-08T02:55:40.985Z,1.18
2022-12-08T02:56:41.974Z,1.16
2022-12-08T02:57:40.955Z,1.16
2022-12-08T02:58:40.924Z,1.18
2022-12-08T02:59:40.913Z,1.18
2022-12-08T03:00:40.936Z,1.16
2022-12-08T03:01:40.912Z,1.15
2022-12-08T03:02:40.905Z,1.15
2022-12-08T03:03:40.872Z,1.14
2022-12-08T03:04:40.854Z,1.12
2022-12-08T03:05:40.837Z,1.10
2022-12-08T03:06:40.864Z,1.07
2022-12-08T03:07:40.889Z,1.07
2022-12-08T03:08:40.809Z,1.04
2022-12-08T03:09:40.786Z,1.03
2022-12-08T03:10:40.775Z,1.01
2022-12-08T03:11:40.866Z,1.03
2022-12-08T03:12:41.754Z,1.00
2022-12-08T03:13:40.765Z,1.00
2022-12-08T03:14:40.747Z,0.98
2022-12-08T03:15:40.800Z,0.98
2022-12-08T03:16:41.722Z,1.00
2022-12-08T03:17:40.704Z,1.00
2022-12-08T03:18:40.696Z,1.00
2022-12-08T03:19:40.672Z,1.00
2022-12-08T03:20:40.669Z,0.97
2022-12-08T03:21:40.655Z,0.97
2022-12-08T03:22:40.647Z,0.98
2022-12-08T03:23:40.615Z,1.00
2022-12-08T03:24:40.611Z,1.00
2022-12-08T03:25:40.585Z,1.00
2022-12-08T03:26:41.595Z,1.01
2022-12-08T03:27:40.567Z,1.01
2022-12-08T03:28:40.577Z,1.03
2022-12-08T03:29:40.555Z,1.06
2022-12-08T03:30:40.566Z,1.07
2022-12-08T03:31:40.667Z,1.07
2022-12-08T03:32:41.516Z,1.08
2022-12-08T03:33:40.507Z,1.12
2022-12-08T03:34:40.490Z,1.15
2022-12-08T03:35:40.473Z,1.16
2022-12-08T03:36:40.467Z,1.18
2022-12-08T03:37:40.456Z,1.21
2022-12-08T03:38:40.457Z,1.21
2022-12-08T03:39:40.425Z,1.22
2022-12-08T03:40:40.405Z,1.25
2022-12-08T03:41:40.407Z,1.26
2022-12-08T03:42:40.376Z,1.28
2022-12-08T03:43:40.375Z,1.28
2022-12-08T03:44:40.379Z,1.32
2022-12-08T03:45:40.338Z,1.32
2022-12-08T03:46:40.346Z,1.34
2022-12-08T03:47:40.316Z,1.34
2022-12-08T03:48:40.306Z,1.37
2022-12-08T03:49:41.284Z,1.40
2022-12-08T04:03:33.694Z,1.52
2022-12-08T04:04:33.676Z,1.51
2022-12-08T04:05:33.686Z,1.52
2022-12-08T04:06:33.684Z,1.51
2022-12-08T04:07:33.633Z,1.50
2022-12-08T04:08:33.633Z,1.47
2022-12-08T04:09:33.628Z,1.50
2022-12-08T04:10:59.647Z,1.46
2022-12-08T04:11:42.335Z,1.47
2022-12-08T04:12:42.116Z,1.47
2022-12-08T04:13:41.088Z,1.46
2022-12-08T04:14:33.548Z,1.47
2022-12-08T04:15:56.789Z,1.46
2022-12-08T04:16:33.622Z,1.44
2022-12-08T04:17:33.541Z,1.46
2022-12-08T04:18:33.506Z,1.46
2022-12-08T04:19:33.551Z,1.44
2022-12-08T04:20:33.504Z,1.44
2022-12-08T04:21:33.520Z,1.46
2022-12-08T04:22:43.223Z,1.43
2022-12-08T04:23:33.460Z,1.44
2022-12-08T04:24:40.954Z,1.43
2022-12-08T04:25:33.413Z,1.42
2022-12-08T04:26:40.977Z,1.40
2022-12-08T04:27:33.387Z,1.40
2022-12-08T04:28:33.425Z,1.39
2022-12-08T04:29:42.041Z,1.36
2022-12-08T04:30:40.877Z,1.36
2022-12-08T04:31:42.092Z,1.36
2022-12-08T04:32:47.194Z,1.34
2022-12-08T04:33:34.312Z,1.39
2022-12-08T04:34:33.341Z,1.37
2022-12-08T04:35:33.404Z,1.37
2022-12-08T04:36:33.391Z,1.36
2022-12-08T04:37:33.313Z,1.36
2022-12-08T04:38:33.318Z,1.36
2022-12-08T04:39:33.341Z,1.34
2022-12-08T04:40:33.239Z,1.34
2022-12-08T04:41:35.293Z,1.36
2022-12-08T04:43:05.002Z,1.37
2022-12-08T04:43:33.213Z,1.36
2022-12-08T04:44:33.185Z,1.33
2022-12-08T04:45:35.204Z,1.33
2022-12-08T04:46:33.246Z,1.33
2022-12-08T04:47:33.182Z,1.34
2022-12-08T04:48:33.133Z,1.34
2022-12-08T04:49:33.122Z,1.34
2022-12-08T04:50:33.104Z,1.36
2022-12-08T04:51:33.096Z,1.36
2022-12-08T04:52:33.096Z,1.34
2022-12-08T04:53:33.069Z,1.34
2022-12-08T04:54:34.052Z,1.34
2022-12-08T04:55:33.038Z,1.33
2022-12-08T04:56:33.034Z,1.34
2022-12-08T04:57:33.024Z,1.33
2022-12-08T04:58:34.020Z,1.33
2022-12-08T04:59:32.981Z,1.33
2022-12-08T05:00:32.982Z,1.32
2022-12-08T05:01:33.348Z,1.29
2022-12-08T05:02:34.052Z,1.29
2022-12-08T05:03:32.993Z,1.26
2022-12-08T05:04:32.943Z,1.29
2022-12-08T05:05:32.914Z,1.29
2022-12-08T05:06:32.903Z,1.28
2022-12-08T05:07:32.907Z,1.29
2022-12-08T05:08:33.017Z,1.32
2022-12-08T05:09:32.883Z,1.34
2022-12-08T05:10:32.870Z,1.32
2022-12-08T05:11:32.852Z,1.34
2022-12-08T05:12:32.822Z,1.33
2022-12-08T05:13:32.863Z,1.29
2022-12-08T05:14:32.808Z,1.28
2022-12-08T05:15:32.835Z,1.32
2022-12-08T05:16:32.821Z,1.32
2022-12-08T05:17:32.791Z,1.32
2022-12-08T05:18:32.786Z,1.33
2022-12-08T05:19:32.742Z,1.34
2022-12-08T05:20:32.743Z,1.34
2022-12-08T05:21:32.740Z,1.36
2022-12-08T05:22:32.713Z,1.34
2022-12-08T05:23:32.727Z,1.37
2022-12-08T05:24:32.675Z,1.37
2022-12-08T05:25:32.705Z,1.36
2022-12-08T05:26:32.679Z,1.33
2022-12-08T05:27:32.642Z,1.33
2022-12-08T05:28:41.721Z,1.29
2022-12-08T05:29:33.601Z,1.29
2022-12-08T05:30:32.616Z,1.33
2022-12-08T05:31:32.731Z,1.33
2022-12-08T05:32:32.583Z,1.33
2022-12-08T05:33:32.592Z,1.29
2022-12-08T05:34:32.561Z,1.26
2022-12-08T05:35:32.537Z,1.26
2022-12-08T05:36:32.524Z,1.25
2022-12-08T05:37:32.515Z,1.24
2022-12-08T05:38:32.508Z,1.24
2022-12-08T05:39:32.492Z,1.24
2022-12-08T05:40:32.482Z,1.25
2022-12-08T05:41:32.472Z,1.28
2022-12-08T05:42:32.451Z,1.33
2022-12-08T05:43:33.441Z,1.32
2022-12-08T05:44:32.451Z,1.32
2022-12-08T05:45:32.468Z,1.33
2022-12-08T05:46:32.397Z,1.33
2022-12-08T05:47:35.985Z,1.33
2022-12-08T05:48:32.424Z,1.34
2022-12-08T05:49:32.394Z,1.34
2022-12-08T05:50:32.354Z,1.37
2022-12-08T05:51:32.333Z,1.37
2022-12-08T05:52:34.372Z,1.37
2022-12-08T05:53:32.362Z,1.39
2022-12-08T05:54:32.320Z,1.40
2022-12-08T05:55:32.304Z,1.40
2022-12-08T05:56:32.295Z,1.42
2022-12-08T05:57:32.299Z,1.40
2022-12-08T05:58:32.251Z,1.40
2022-12-08T05:59:32.260Z,1.42
2022-12-08T06:00:32.223Z,1.42
2022-12-08T06:01:32.252Z,1.42
2022-12-08T06:02:32.356Z,1.43
2022-12-08T06:03:32.238Z,1.42
2022-12-08T06:04:32.178Z,1.42
2022-12-08T06:05:32.162Z,1.43
2022-12-08T06:06:32.160Z,1.43
2022-12-08T06:07:32.130Z,1.40
2022-12-08T06:08:34.183Z,1.39
2022-12-08T06:09:32.147Z,1.39
2022-12-08T06:10:32.150Z,1.39
2022-12-08T06:11:32.083Z,1.39
2022-12-08T06:12:32.073Z,1.39
2022-12-08T06:13:32.101Z,1.39
2022-12-08T06:14:32.063Z,1.37
2022-12-08T06:15:32.087Z,1.37
2022-12-08T06:16:32.076Z,1.37
2022-12-08T06:17:32.007Z,1.34
2022-12-08T06:18:33.012Z,1.34
2022-12-08T06:19:31.994Z,1.34
2022-12-08T06:20:32.033Z,1.32
2022-12-08T06:21:31.956Z,1.34
2022-12-08T06:22:31.949Z,1.34
2022-12-08T06:23:31.964Z,1.36
2022-12-08T06:24:31.951Z,1.34
2022-12-08T06:25:31.913Z,1.34
2022-12-08T06:26:31.926Z,1.33
2022-12-08T06:27:31.889Z,1.32
2022-12-08T06:28:31.876Z,1.29
2022-12-08T06:29:31.875Z,1.29
2022-12-08T06:30:31.860Z,1.28
2022-12-08T06:31:31.958Z,1.29
2022-12-08T06:32:31.872Z,1.28
2022-12-08T06:33:31.805Z,1.28
2022-12-08T06:34:31.809Z,1.29
2022-12-08T06:35:32.794Z,1.33
2022-12-08T06:36:31.788Z,1.36
2022-12-08T06:37:31.764Z,1.36
2022-12-08T06:38:31.750Z,1.36
2022-12-08T06:39:31.735Z,1.36
2022-12-08T06:40:32.742Z,1.34
2022-12-08T06:41:31.706Z,1.34
2022-12-08T06:42:31.706Z,1.34
2022-12-08T06:43:31.701Z,1.36
2022-12-08T06:44:31.695Z,1.36
2022-12-08T06:45:31.797Z,1.36
2022-12-08T06:46:31.721Z,1.36
2022-12-08T06:47:31.714Z,1.33
2022-12-08T06:48:31.624Z,1.32
2022-12-08T06:49:31.601Z,1.29
2022-12-08T06:50:31.622Z,1.28
2022-12-08T06:51:31.585Z,1.26
2022-12-08T06:52:31.574Z,1.26
2022-12-08T06:53:31.561Z,1.26
2022-12-08T06:54:31.537Z,1.28
2022-12-08T06:56:32.517Z,1.29
2022-12-08T06:57:31.496Z,1.33
2022-12-08T06:58:31.506Z,1.33
2022-12-08T06:59:31.475Z,1.34
2022-12-08T07:00:31.501Z,1.39
2022-12-08T07:01:32.558Z,1.36
2022-12-08T07:02:31.498Z,1.32
2022-12-08T07:03:31.426Z,1.29
2022-12-08T07:04:31.419Z,1.29
2022-12-08T07:05:32.433Z,1.29
2022-12-08T07:06:31.422Z,1.32
2022-12-08T07:07:31.396Z,1.33
2022-12-08T07:08:31.431Z,1.33
2022-12-08T07:09:31.347Z,1.32
2022-12-08T07:10:32.358Z,1.33
2022-12-08T07:11:31.344Z,1.34
2022-12-08T07:12:31.317Z,1.33
2022-12-08T07:13:31.318Z,1.34
2022-12-08T07:14:31.323Z,1.33
2022-12-08T07:15:31.288Z,1.32
2022-12-08T07:16:31.305Z,1.29
2022-12-08T07:17:31.282Z,1.28
2022-12-08T07:18:31.261Z,1.28
2022-12-08T07:19:31.215Z,1.28
2022-12-08T07:20:31.232Z,1.33
2022-12-08T07:21:31.203Z,1.34
2022-12-08T07:22:32.186Z,1.36
2022-12-08T07:23:31.174Z,1.34
2022-12-08T07:24:31.177Z,1.32
2022-12-08T07:25:31.159Z,1.32
2022-12-08T07:26:31.137Z,1.29
2022-12-08T07:27:31.126Z,1.29
2022-12-08T07:28:31.128Z,1.29
2022-12-08T07:29:31.099Z,1.28
2022-12-08T07:30:31.159Z,1.26
2022-12-08T07:31:31.076Z,1.26
2022-12-08T07:32:32.066Z,1.26
2022-12-08T07:33:31.067Z,1.25
2022-12-08T07:34:31.047Z,1.26
2022-12-08T07:35:31.041Z,1.28
2022-12-08T07:36:31.034Z,1.29
2022-12-08T07:37:30.996Z,1.32
2022-12-08T07:38:31.990Z,1.33
2022-12-08T07:39:30.969Z,1.34
2022-12-08T07:40:30.987Z,1.34
2022-12-08T07:41:30.947Z,1.28
2022-12-08T07:42:30.947Z,1.28
2022-12-08T07:43:30.959Z,1.25
2022-12-08T07:44:30.936Z,1.25
2022-12-08T07:45:31.839Z,1.26
2022-12-08T07:46:30.935Z,1.25
2022-12-08T07:47:30.888Z,1.25
2022-12-08T07:48:30.867Z,1.28
2022-12-08T07:49:30.871Z,1.32
2022-12-08T07:50:30.858Z,1.33
2022-12-08T07:51:30.825Z,1.34
2022-12-08T07:52:30.817Z,1.34
2022-12-08T07:53:30.881Z,1.36
2022-12-08T07:54:30.811Z,1.36
2022-12-08T07:55:30.788Z,1.37
2022-12-08T07:56:30.769Z,1.37
2022-12-08T07:57:30.747Z,1.39
2022-12-08T07:58:30.738Z,1.39
2022-12-08T07:59:32.746Z,1.39
2022-12-08T08:00:30.845Z,1.42
2022-12-08T08:01:30.755Z,1.42
2022-12-08T08:02:30.788Z,1.42
2022-12-08T08:03:30.679Z,1.40
2022-12-08T08:04:30.760Z,1.42
2022-12-08T08:05:30.692Z,1.43
2022-12-08T08:06:30.662Z,1.46
2022-12-08T08:07:30.640Z,1.50
2022-12-08T08:08:30.672Z,1.50
2022-12-08T08:09:30.599Z,1.51
2022-12-08T08:10:30.618Z,1.51
2022-12-08T08:11:30.577Z,1.46
2022-12-08T08:12:32.011Z,1.40
2022-12-08T08:13:31.536Z,1.39
2022-12-08T08:14:30.538Z,1.39
2022-12-08T08:15:30.635Z,1.40
2022-12-08T08:16:35.087Z,1.43
2022-12-08T08:17:31.660Z,1.44
2022-12-08T08:18:30.496Z,1.46
2022-12-08T08:19:30.467Z,1.47
2022-12-08T08:20:30.523Z,1.47
2022-12-08T08:21:45.472Z,1.50
2022-12-08T08:22:31.430Z,1.50
2022-12-08T08:23:30.449Z,1.47
2022-12-08T08:24:30.417Z,1.47
2022-12-08T08:25:30.430Z,1.46
2022-12-08T08:26:30.411Z,1.43
2022-12-08T08:27:30.382Z,1.44
2022-12-08T08:28:30.371Z,1.44
2022-12-08T08:29:30.363Z,1.46
2022-12-08T08:30:30.378Z,1.50
2022-12-08T08:31:30.401Z,1.50
2022-12-08T08:32:30.320Z,1.50
2022-12-08T08:33:30.309Z,1.46
2022-12-08T08:34:30.283Z,1.46
2022-12-08T08:35:30.309Z,1.47
2022-12-08T08:36:31.262Z,1.51
2022-12-08T08:37:30.250Z,1.52
2022-12-08T08:38:30.246Z,1.57
2022-12-08T08:39:30.221Z,1.57
2022-12-08T08:40:30.220Z,1.55
2022-12-08T08:41:30.210Z,1.57
2022-12-08T08:42:30.193Z,1.55
2022-12-08T08:43:34.481Z,1.58
2022-12-08T08:44:31.158Z,1.57
2022-12-08T08:45:30.169Z,1.55
2022-12-08T08:46:30.189Z,1.54
2022-12-08T08:47:30.134Z,1.57
2022-12-08T08:48:30.100Z,1.58
2022-12-08T08:49:30.115Z,1.60
2022-12-08T08:50:35.896Z,1.61
2022-12-08T08:51:31.100Z,1.64
2022-12-08T08:52:30.058Z,1.69
2022-12-08T08:53:30.039Z,1.72
2022-12-08T08:54:30.020Z,1.75
2022-12-08T08:55:30.049Z,1.78
2022-12-08T08:56:30.022Z,1.79
2022-12-08T08:57:30.028Z,1.79
2022-12-08T08:58:29.992Z,1.73
2022-12-08T08:59:29.981Z,1.72
2022-12-08T09:00:31.975Z,1.75
2022-12-08T09:01:30.040Z,1.69
2022-12-08T09:02:30.933Z,1.65
2022-12-08T09:03:29.921Z,1.71
2022-12-08T09:04:29.986Z,1.73
2022-12-08T09:05:30.904Z,1.76
2022-12-08T09:06:29.982Z,1.79
2022-12-08T09:07:29.895Z,1.82
2022-12-08T09:08:29.943Z,1.83
2022-12-08T09:09:29.853Z,1.83
2022-12-08T09:10:29.829Z,1.85
2022-12-08T09:11:29.829Z,1.89
2022-12-08T09:12:29.817Z,1.91
2022-12-08T09:13:30.849Z,1.93
2022-12-08T09:14:29.791Z,1.94
2022-12-08T09:15:29.760Z,1.98
2022-12-08T09:16:29.830Z,1.98
2022-12-08T09:17:29.751Z,2.01
2022-12-08T09:18:29.720Z,2.02
2022-12-08T09:19:29.731Z,2.02
2022-12-08T09:20:29.708Z,2.01
2022-12-08T09:21:29.740Z,2.02
2022-12-08T09:22:29.679Z,2.02
2022-12-08T09:23:35.205Z,2.06
2022-12-08T09:24:30.657Z,2.08
2022-12-08T09:25:29.652Z,2.08
2022-12-08T09:26:29.642Z,2.06
2022-12-08T09:27:29.638Z,2.09
2022-12-08T09:28:29.608Z,2.08
2022-12-08T09:29:34.184Z,2.09
2022-12-08T09:30:30.573Z,2.13
2022-12-08T09:31:29.635Z,2.15
2022-12-08T09:32:29.555Z,2.16
2022-12-08T09:33:29.550Z,2.16
2022-12-08T09:34:29.525Z,2.19
2022-12-08T09:35:29.514Z,2.19
2022-12-08T09:36:29.528Z,2.20
2022-12-08T09:37:29.504Z,2.17
2022-12-08T09:38:29.502Z,2.16
2022-12-08T09:39:29.463Z,2.13
2022-12-08T09:40:29.453Z,2.15
2022-12-08T09:41:35.934Z,2.16
2022-12-08T09:42:30.444Z,2.17
2022-12-08T09:43:29.423Z,2.12
2022-12-08T09:44:29.399Z,2.09
2022-12-08T09:45:29.393Z,2.04
2022-12-08T09:46:29.449Z,2.09
2022-12-08T09:47:35.337Z,2.08
2022-12-08T10:04:05.451Z,2.33
2022-12-08T10:05:05.474Z,2.31
2022-12-08T10:06:05.419Z,2.33
2022-12-08T10:07:05.452Z,2.34
2022-12-08T10:08:05.424Z,2.35
2022-12-08T10:09:05.371Z,2.41
2022-12-08T10:10:05.644Z,2.40
2022-12-08T10:11:05.358Z,2.38
2022-12-08T10:12:05.369Z,2.38
2022-12-08T10:13:05.336Z,2.34
2022-12-08T10:14:05.359Z,2.34
2022-12-08T10:15:05.305Z,2.37
2022-12-08T10:16:05.331Z,2.40
2022-12-08T10:17:05.350Z,2.46
2022-12-08T10:18:13.782Z,2.49
2022-12-08T10:19:05.251Z,2.52
2022-12-08T10:20:05.683Z,2.55
2022-12-08T10:21:05.232Z,2.53
2022-12-08T10:22:05.240Z,2.55
2022-12-08T10:23:05.213Z,2.55
2022-12-08T10:24:05.206Z,2.58
2022-12-08T10:25:06.218Z,2.56
2022-12-08T10:26:05.170Z,2.58
2022-12-08T10:27:05.163Z,2.61
2022-12-08T10:28:05.162Z,2.66
2022-12-08T10:29:05.129Z,2.63
2022-12-08T10:30:05.517Z,2.59
2022-12-08T10:31:05.180Z,2.55
2022-12-08T10:32:05.178Z,2.56
2022-12-08T10:33:05.075Z,2.56
2022-12-08T10:34:05.064Z,2.61
2022-12-08T10:35:05.070Z,2.69
2022-12-08T10:36:05.104Z,2.73
2022-12-08T10:37:05.042Z,2.73
2022-12-08T10:38:05.025Z,2.74
2022-12-08T10:39:05.299Z,2.76
2022-12-08T10:40:06.120Z,2.82
2022-12-08T10:41:04.986Z,2.88
2022-12-08T10:42:04.991Z,2.92
2022-12-08T10:43:04.963Z,2.97
2022-12-08T10:44:04.932Z,3.02
2022-12-08T10:45:04.975Z,3.06
2022-12-08T10:46:04.920Z,3.15
2022-12-08T10:47:05.038Z,3.15
2022-12-08T10:48:04.880Z,3.16
2022-12-08T10:49:04.918Z,3.16
2022-12-08T10:50:05.123Z,3.20
2022-12-08T10:51:04.878Z,3.21
2022-12-08T10:52:04.862Z,3.20
2022-12-08T10:53:04.843Z,3.15
2022-12-08T10:54:04.811Z,3.12
2022-12-08T10:55:04.833Z,3.07
2022-12-08T10:56:04.804Z,3.09
2022-12-08T10:57:04.816Z,3.13
2022-12-08T10:58:04.776Z,3.18
2022-12-08T10:59:04.781Z,3.21
2022-12-08T11:00:08.279Z,3.24
2022-12-08T11:01:05.803Z,3.36
2022-12-08T11:02:04.834Z,3.47
2022-12-08T11:03:04.831Z,3.61
2022-12-08T11:04:04.683Z,3.68
2022-12-08T11:05:04.670Z,3.79
2022-12-08T11:06:10.838Z,3.83
2022-12-08T11:07:05.683Z,3.85
2022-12-08T11:08:04.838Z,3.85
2022-12-08T11:09:04.615Z,3.88
2022-12-08T11:10:05.175Z,3.97
2022-12-08T11:11:05.595Z,4.08
2022-12-08T11:12:04.586Z,4.22
2022-12-08T11:13:04.592Z,4.26
2022-12-08T11:14:04.600Z,4.34
2022-12-08T11:15:04.534Z,4.46
2022-12-08T11:16:04.622Z,4.55
2022-12-08T11:17:04.608Z,4.52
2022-12-08T11:18:04.531Z,4.62
2022-12-08T11:19:04.491Z,4.61
2022-12-08T11:20:04.759Z,4.77
2022-12-08T11:21:05.466Z,4.92
2022-12-08T11:22:04.477Z,5.32
2022-12-08T11:23:04.435Z,5.78
2022-12-08T11:24:04.444Z,6.06
2022-12-08T11:25:04.408Z,6.53
2022-12-08T11:26:04.405Z,7.08
2022-12-08T11:27:04.407Z,7.75
2022-12-08T11:28:04.387Z,8.07
2022-12-08T11:29:04.358Z,7.97
2022-12-08T11:30:08.429Z,8.03
2022-12-08T11:31:06.399Z,8.00
2022-12-08T11:32:04.427Z,8.10
2022-12-08T11:33:04.340Z,7.79
2022-12-08T11:34:04.303Z,7.45
2022-12-08T11:35:04.306Z,7.26
2022-12-08T11:36:04.260Z,6.97
2022-12-08T11:37:04.246Z,6.36
2022-12-08T11:38:20.589Z,6.14
2022-12-08T11:39:05.226Z,5.83
2022-12-08T11:40:04.548Z,5.71
2022-12-08T11:41:04.200Z,5.60
2022-12-08T11:42:04.196Z,5.40
2022-12-08T11:43:04.178Z,5.32
2022-12-08T11:44:04.149Z,5.30
2022-12-08T11:45:04.427Z,5.34
2022-12-08T11:46:05.146Z,5.40
2022-12-08T11:47:05.110Z,5.43
2022-12-08T11:48:04.156Z,5.13
2022-12-08T11:49:06.800Z,5.14
2022-12-08T11:50:04.243Z,5.46
2022-12-08T11:51:04.057Z,5.45
2022-12-08T11:52:05.088Z,5.25
2022-12-08T11:53:04.050Z,4.96
2022-12-08T11:54:04.032Z,4.84
2022-12-08T11:55:04.026Z,4.75
2022-12-08T11:56:04.010Z,4.62
2022-12-08T11:57:04.012Z,4.40
2022-12-08T11:58:04.042Z,4.18
2022-12-08T11:59:03.963Z,4.06
2022-12-08T12:00:04.428Z,4.06
2022-12-08T12:01:03.942Z,4.06
2022-12-08T12:02:04.024Z,4.04
2022-12-08T12:03:03.993Z,4.04
2022-12-08T12:04:03.908Z,4.08
2022-12-08T12:05:03.897Z,4.06
2022-12-08T12:06:38.248Z,4.07
2022-12-08T12:07:04.860Z,4.08
2022-12-08T12:08:03.917Z,4.12
2022-12-08T12:09:03.849Z,4.15
2022-12-08T12:10:04.170Z,4.18
2022-12-08T12:11:03.800Z,4.15
2022-12-08T12:12:03.832Z,4.12
2022-12-08T12:13:04.789Z,4.07
2022-12-08T12:14:03.792Z,4.04
2022-12-08T12:15:03.755Z,3.97
2022-12-08T12:16:03.738Z,3.97
2022-12-08T12:17:03.822Z,3.98
2022-12-08T12:18:04.724Z,4.00
2022-12-08T12:19:03.734Z,4.01
2022-12-08T12:20:04.030Z,4.00
2022-12-08T12:21:03.683Z,3.96
2022-12-08T12:22:05.702Z,3.92
2022-12-08T12:23:03.697Z,3.89
2022-12-08T12:24:03.648Z,3.88
2022-12-08T12:25:03.643Z,3.89
2022-12-08T12:26:03.655Z,3.90
2022-12-08T12:27:05.656Z,3.88
2022-12-08T12:28:03.591Z,3.86
2022-12-08T12:29:03.602Z,3.86
2022-12-08T12:30:03.662Z,3.83
2022-12-08T12:31:03.562Z,3.85
2022-12-08T12:32:04.541Z,3.88
2022-12-08T12:33:03.524Z,3.86
2022-12-08T12:34:03.534Z,3.88
2022-12-08T12:35:03.510Z,3.90
2022-12-08T12:36:03.491Z,3.92
2022-12-08T12:37:03.470Z,3.97
2022-12-08T12:38:03.461Z,3.97
2022-12-08T12:39:03.476Z,3.97
2022-12-08T12:40:03.737Z,3.94
2022-12-08T12:41:03.438Z,3.94
2022-12-08T12:42:04.410Z,3.96
2022-12-08T12:43:03.392Z,3.98
2022-12-08T12:44:03.384Z,4.01
2022-12-08T12:45:03.393Z,4.03
2022-12-08T12:46:03.393Z,4.04
2022-12-08T12:47:04.346Z,4.04
2022-12-08T12:48:03.356Z,4.04
2022-12-08T12:49:03.315Z,3.97
2022-12-08T12:50:03.905Z,3.94
2022-12-08T12:51:03.293Z,3.96
2022-12-08T12:52:03.327Z,3.96
2022-12-08T12:53:03.273Z,3.90
2022-12-08T12:54:03.252Z,3.89
2022-12-08T12:55:03.283Z,3.92
2022-12-08T12:56:03.240Z,3.94
2022-12-08T12:57:03.243Z,3.94
2022-12-08T12:58:03.203Z,3.88
2022-12-08T12:59:03.206Z,3.88
2022-12-08T13:00:03.191Z,3.85
2022-12-08T13:01:03.228Z,3.86
2022-12-08T13:02:03.310Z,3.80
2022-12-08T13:03:03.330Z,3.80
2022-12-08T13:04:03.121Z,3.82
2022-12-08T13:05:03.134Z,3.83
2022-12-08T13:06:03.115Z,3.83
2022-12-08T13:07:03.143Z,3.80
2022-12-08T13:08:03.166Z,3.82
2022-12-08T13:09:03.065Z,3.82
2022-12-08T13:10:03.258Z,3.82
2022-12-08T13:11:03.032Z,3.82
2022-12-08T13:12:03.027Z,3.78
2022-12-08T13:13:03.997Z,3.79
2022-12-08T13:14:02.974Z,3.78
2022-12-08T13:15:11.684Z,3.76
2022-12-08T13:16:12.725Z,3.76
2022-12-08T13:17:10.507Z,3.75
2022-12-08T13:18:02.939Z,3.75
2022-12-08T13:19:10.432Z,3.71
2022-12-08T13:20:02.902Z,3.68
2022-12-08T13:21:12.603Z,3.67
2022-12-08T13:22:02.877Z,3.68
2022-12-08T13:23:10.403Z,3.67
2022-12-08T13:24:03.843Z,3.71
2022-12-08T13:25:02.848Z,3.71
2022-12-08T13:26:03.851Z,3.71
2022-12-08T13:27:02.823Z,3.70
2022-12-08T13:28:10.316Z,3.64
2022-12-08T13:29:02.787Z,3.62
2022-12-08T13:30:04.125Z,3.64
2022-12-08T13:31:02.860Z,3.67
2022-12-08T13:32:02.767Z,3.70
2022-12-08T13:33:17.842Z,3.67
2022-12-08T13:34:03.737Z,3.65
2022-12-08T13:35:02.717Z,3.64
2022-12-08T13:36:02.720Z,3.62
2022-12-08T13:37:02.720Z,3.61
2022-12-08T13:38:02.677Z,3.61
2022-12-08T13:39:02.660Z,3.62
2022-12-08T13:40:02.828Z,3.62
2022-12-08T13:41:02.656Z,3.64
2022-12-08T13:42:11.007Z,3.64
2022-12-08T13:43:02.616Z,3.67
2022-12-08T13:44:56.797Z,3.65
2022-12-08T13:45:52.969Z,3.64
2022-12-08T13:47:32.220Z,3.62
2022-12-08T13:48:26.593Z,3.58
2022-12-08T13:50:47.848Z,3.58
2022-12-08T13:53:49.714Z,3.54